Buoy 56564

sailwx.info

Track history (hours):
 
Tides and Currents Weather Stations Pressure Air Temp Water Temp Dewpoint Dewpoint Depression Visibility Wind Speed Wind Dir Waves Ship Positions

Drifting buoy 56564

Last reported at 2017-May-28 21:30 UTC. Time now 2017-May-28 22:15 UTC.
Position S 25°25' E 069°58'.

Barometer 1022.2 mb
Water temperature 24.4 ° C

Date/timePositionNaut miles runAvg speedWind from/ knotsBaromVisibWave heightAir tempDewpointWater temp
2017-May-28 21:30S 25°25' E 069°58'0 0.0 1022.2 24.4
2017-May-28 20:30S 25°25' E 069°58'1 0.3 1022.2 24.5
2017-May-28 18:30S 25°26' E 069°58'1 0.6 1022.5 24.5
2017-May-28 16:30S 25°26' E 069°59'0 0.0 1022.8 24.5
2017-May-28 14:30S 25°26' E 069°59'0 0.0 1022.3 24.5
2017-May-28 13:40S 25°26' E 069°59'1 0.5 1022.0 24.5
2017-May-28 12:30S 25°27' E 069°59'1 0.7 1021.7 24.5
2017-May-28 11:40S 25°28' E 069°59'1 0.3 1021.7 24.6
2017-May-28 09:30S 25°28' E 069°59'1 0.2 1022.0 24.6
2017-May-28 05:40S 25°29' E 069°59'0 0.0 1024.1 24.4
2017-May-28 04:30S 25°29' E 069°59'1 0.7 1024.2 24.4
2017-May-28 03:40S 25°28' E 069°59'1 0.5 1023.6 24.4
2017-May-28 02:30S 25°28' E 069°59'0 0.0 1023.0 24.4
2017-May-28 00:30S 25°28' E 069°59'1 0.3 1022.0 24.4
2017-May-27 22:40S 25°28' E 069°59'1 0.5 1022.0 24.4
2017-May-27 21:30S 25°28' E 070°00'2 0.4 1022.3 24.4
2017-May-27 17:30S 25°28' E 070°02'1 0.5 1023.8 24.5
2017-May-27 16:30S 25°28' E 070°01'1 1.1 1023.8 24.5
2017-May-27 15:30S 25°28' E 070°02'1 0.4 1023.7 24.5
2017-May-27 13:30S 25°29' E 070°03'1 0.6 1022.7 24.5
2017-May-27 12:30S 25°29' E 070°03'1 0.6 1022.3 24.5
2017-May-27 11:40S 25°29' E 070°04'0 0.0 1021.9 24.5
2017-May-27 09:30S 25°29' E 070°04'1 0.1 1022.0 24.5
2017-May-27 04:40S 25°30' E 070°04'1 0.7 1024.3 24.4
2017-May-27 03:30S 25°29' E 070°04'0 0.0 1024.1 24.4
2017-May-27 02:40S 25°29' E 070°04'0 0.0 1023.7 24.4
2017-May-27 01:30S 25°29' E 070°04'1 1.1 1023.2 24.4
2017-May-27 00:30S 25°29' E 070°05'1 0.8 1022.7 24.4
2017-May-26 23:30S 25°29' E 070°05'1 0.4 1022.7 24.4
2017-May-26 21:30S 25°29' E 070°05'2 0.6 1023.0 24.4
2017-May-26 17:30S 25°30' E 070°08'1 0.8 1023.5 24.5
2017-May-26 16:30S 25°31' E 070°08'1 1.2 1023.4 24.5
2017-May-26 15:30S 25°29' E 070°08'1 0.6 1023.6 24.4
2017-May-26 14:30S 25°30' E 070°08'1 0.6 1023.1
2017-May-26 13:40S 25°30' E 070°09'1 0.7 1022.5 24.5
2017-May-26 12:30S 25°29' E 070°10'1 0.3 1022.1 24.5
2017-May-26 10:30S 25°30' E 070°10'0 0.0 1021.8 24.5
2017-May-26 09:30S 25°30' E 070°10'2 1.7 1021.8 24.6
2017-May-26 08:30S 25°31' E 070°11'1 0.1 1022.3 24.6
2017-May-26 04:30S 25°31' E 070°12'1 0.6 1024.1 24.4
2017-May-26 03:40S 25°31' E 070°11'1 0.2 1023.7 24.4
2017-May-26 01:30S 25°31' E 070°12'1 0.6 1022.3 24.4
2017-May-26 00:30S 25°30' E 070°12'1 0.7 1022.1 24.5
2017-May-25 23:40S 25°31' E 070°12'1 0.2 1022.1 24.5
2017-May-25 21:30S 25°31' E 070°13'2 0.6 1022.3 24.5
2017-May-25 17:40S 25°32' E 070°14'1 0.5 1023.3 24.5
2017-May-25 16:30S 25°33' E 070°14'0 0.0 1023.0 24.5
2017-May-25 15:30S 25°33' E 070°14'1 0.6 1023.0 24.4
2017-May-25 14:30S 25°34' E 070°14'1 0.8 1022.7 24.4
2017-May-25 13:30S 25°34' E 070°15'3 1.0 1022.0 24.5
2017-May-25 10:30S 25°37' E 070°15'2 0.3 1020.8 24.4
2017-May-25 05:30S 25°37' E 070°17'1 0.5 1023.1 24.4
2017-May-25 04:30S 25°37' E 070°17'1 0.7 1023.2 24.4
2017-May-25 02:40S 25°38' E 070°19'1 0.5 1022.5 24.4
2017-May-25 01:30S 25°38' E 070°19'0 0.0 1022.0 24.4
2017-May-25 00:30S 25°38' E 070°19'2 1.7 1021.8 24.3
2017-May-24 23:30S 25°38' E 070°21'2 0.8 1021.5 24.4
2017-May-24 21:30S 25°40' E 070°22'0 0.0 1021.8 24.3
2017-May-24 20:30S 25°40' E 070°22'1 0.5 1022.2 24.4
2017-May-24 17:40S 25°41' E 070°23'1 0.9 1022.4 24.4
2017-May-24 16:30S 25°41' E 070°22'1 1.1 1022.5 24.4
2017-May-24 15:30S 25°41' E 070°23'1 1.0 1022.6 24.4
2017-May-24 14:40S 25°41' E 070°23'1 0.5 1022.3 24.4
2017-May-24 13:30S 25°42' E 070°23'1 1.3 1021.7 24.4
2017-May-24 12:30S 25°43' E 070°24'1 0.5 1021.3 24.4
2017-May-24 11:30S 25°43' E 070°25'2 0.3 1020.9 24.4
2017-May-24 05:30S 25°43' E 070°26'0 0.0 1023.3 24.4
2017-May-24 04:40S 25°43' E 070°26'1 0.5 1023.6 24.3
2017-May-24 03:30S 25°44' E 070°26'1 0.5 1023.2 24.3
2017-May-24 02:30S 25°44' E 070°27'1 0.5 1022.9 24.3
2017-May-24 01:30S 25°44' E 070°28'1 1.1 1022.4 24.3
2017-May-24 00:30S 25°44' E 070°29'1 0.8 1021.9 24.3
2017-May-23 23:30S 25°44' E 070°29'1 0.4 1021.5 24.3
2017-May-23 21:30S 25°45' E 070°30'2 2.0 1021.8 24.4
2017-May-23 20:30S 25°46' E 070°32'0 0.0 1022.1 24.3
2017-May-23 18:40S 25°46' E 070°32'1 0.6 1022.6 24.4
2017-May-23 16:30S 25°47' E 070°32'1 1.3 1022.8 24.4
2017-May-23 15:30S 25°49' E 070°32'1 0.6 1022.8 24.4
2017-May-23 14:30S 25°48' E 070°32'1 0.6 1022.4 24.4
2017-May-23 13:30S 25°49' E 070°32'1 0.5 1021.9 24.5
2017-May-23 12:30S 25°49' E 070°33'0 0.0 1021.4 24.6
2017-May-23 10:30S 25°49' E 070°33'1 0.2 1020.8 24.8
2017-May-23 05:30S 25°48' E 070°34'1 0.5 1022.7 24.4
2017-May-23 04:30S 25°48' E 070°35'1 0.8 1022.7 24.3
2017-May-23 03:30S 25°47' E 070°34'1 1.2 1022.4 24.3
2017-May-23 02:30S 25°48' E 070°35'0 0.0 1022.2 24.3
2017-May-23 01:30S 25°48' E 070°35'1 0.8 1021.9 24.3
2017-May-23 00:30S 25°47' E 070°36'0 0.0 1021.7 24.3
2017-May-22 23:30S 25°47' E 070°36'1 1.0 1021.4 24.3
2017-May-22 22:40S 25°48' E 070°37'3 0.5 1021.4 24.3
2017-May-22 16:30S 25°49' E 070°40'1 0.8 1022.1 24.4
2017-May-22 15:30S 25°50' E 070°40'0 0.0 1021.7 24.4
2017-May-22 14:30S 25°50' E 070°40'1 0.8 1021.5 24.4
2017-May-22 13:30S 25°50' E 070°40'0 0.0 1020.9 24.6
2017-May-22 12:30S 25°50' E 070°40'0 0.0 1020.4 24.7
2017-May-22 11:30S 25°50' E 070°40'1 0.5 1020.2 24.9
2017-May-22 10:30S 25°50' E 070°40'1 1.0 1019.6 25.0
2017-May-22 09:40S 25°50' E 070°41'0 0.0 1019.6 25.1
2017-May-22 05:40S 25°50' E 070°41'0 0.0 1021.6 24.5
2017-May-22 04:30S 25°50' E 070°41'0 0.0 1021.7 24.4
2017-May-22 03:30S 25°50' E 070°41'1 1.0 1021.3 24.3
2017-May-22 02:40S 25°49' E 070°41'1 0.5 1020.8 24.3
2017-May-22 01:30S 25°50' E 070°41'1 0.8 1020.3 24.3
2017-May-22 00:30S 25°49' E 070°42'0 0.0 1019.9 24.3
2017-May-21 22:30S 25°49' E 070°42'2 0.3 1019.6 24.3
2017-May-21 17:30S 25°49' E 070°44'0 0.0 1020.4 24.4
2017-May-21 16:40S 25°49' E 070°44'1 0.7 1020.4 24.4
2017-May-21 15:30S 25°50' E 070°44'1 0.5 1020.2 24.4
2017-May-21 14:30S 25°50' E 070°45'1 0.8 1020.0 24.5
2017-May-21 13:30S 25°50' E 070°44'0 0.0 1019.6 24.5
2017-May-21 11:30S 25°50' E 070°44'1 0.8 1019.0 24.7
2017-May-21 10:30S 25°50' E 070°45'1 1.2 1019.2 24.8
2017-May-21 09:30S 25°49' E 070°46'1 0.1 1019.0 24.8
2017-May-21 04:30S 25°49' E 070°46'1 1.1 1021.1 24.3
2017-May-21 03:30S 25°49' E 070°47'1 0.5 1021.0 24.3
2017-May-21 02:30S 25°49' E 070°48'0 0.0 1020.7 24.3
2017-May-21 01:40S 25°49' E 070°48'2 1.5 1020.1 24.3
2017-May-21 00:30S 25°48' E 070°50'0 0.0 1019.9 24.3
2017-May-20 22:30S 25°48' E 070°50'2 0.9 1020.3 24.3
2017-May-20 20:30S 25°47' E 070°52'1 0.2 1021.1 24.4
2017-May-20 15:30S 25°47' E 070°53'0 0.0 1022.7 24.4
2017-May-20 14:30S 25°47' E 070°53'2 0.8 1022.6 24.4
2017-May-20 12:30S 25°46' E 070°54'0 0.0 1022.2 24.4
2017-May-20 11:30S 25°46' E 070°54'1 1.2 1022.1 24.4
2017-May-20 10:30S 25°45' E 070°55'3 3.0 1022.2 24.4
2017-May-20 09:30S 25°44' E 070°58'0 0.0 1022.3 24.4
2017-May-20 05:30S 25°44' E 070°58'1 0.8 1025.1 24.4
2017-May-20 04:30S 25°43' E 070°59'1 0.5 1025.4 24.4
2017-May-20 03:30S 25°43' E 070°59'0 0.0 1025.4 24.4
2017-May-20 02:30S 25°43' E 070°59'1 0.6 1025.2 24.4
2017-May-20 01:40S 25°43' E 071°00'1 0.7 1024.9 24.4
2017-May-20 00:30S 25°43' E 071°01'1 1.1 1024.8 24.4
2017-May-19 23:30S 25°43' E 071°02'0 0.0 1024.8 24.4
2017-May-19 22:30S 25°43' E 071°02'2 1.6 1025.2 24.4
2017-May-19 21:30S 25°43' E 071°04'0 0.0 1025.4 24.4
2017-May-19 20:30S 25°43' E 071°04'1 0.3 1025.7 24.4
2017-May-19 17:40S 25°42' E 071°04'1 0.9 1026.5 24.4
2017-May-19 16:30S 25°42' E 071°05'1 0.3 1026.6 24.4
2017-May-19 14:30S 25°42' E 071°06'1 0.5 1026.4 24.4
2017-May-19 13:30S 25°42' E 071°07'1 0.5 1025.9 24.4
2017-May-19 12:30S 25°42' E 071°07'0 0.0 1025.5 24.4
2017-May-19 11:40S 25°42' E 071°07'1 0.6 1025.2 24.4
2017-May-19 09:30S 25°41' E 071°08'2 0.5 1024.7 24.4
2017-May-19 05:30S 25°41' E 071°11'1 0.5 1026.9 24.4
2017-May-19 04:30S 25°41' E 071°11'1 0.5 1027.1 24.4
2017-May-19 03:30S 25°41' E 071°12'0 0.0 1026.9 24.4
2017-May-19 02:40S 25°41' E 071°12'1 1.1 1026.5 24.4
2017-May-19 01:30S 25°42' E 071°13'1 0.8 1026.1 24.3
2017-May-19 00:30S 25°43' E 071°14'1 0.5 1025.6 24.3
2017-May-18 22:30S 25°43' E 071°15'0 0.0 1025.7 24.4
2017-May-18 21:30S 25°43' E 071°15'   1025.6 24.4
Track history (hours):
 
Tides and Currents Weather Stations Pressure Air Temp Water Temp Dewpoint Dewpoint Depression Visibility Wind Speed Wind Dir Waves Ship Positions

Drifting buoy 56564

Last reported at 2017-May-28 21:30 UTC. Time now 2017-May-28 22:15 UTC.
Position S 25°25' E 069°58'.

Barometer 1022.2 mb
Water temperature 24.4 ° C

Date/timePositionNaut miles runAvg speedWind from/ knotsBaromVisibWave heightAir tempDewpointWater temp
2017-May-28 21:30S 25°25' E 069°58'0 0.0 1022.2 24.4
2017-May-28 20:30S 25°25' E 069°58'1 0.3 1022.2 24.5
2017-May-28 18:30S 25°26' E 069°58'1 0.6 1022.5 24.5
2017-May-28 16:30S 25°26' E 069°59'0 0.0 1022.8 24.5
2017-May-28 14:30S 25°26' E 069°59'0 0.0 1022.3 24.5
2017-May-28 13:40S 25°26' E 069°59'1 0.5 1022.0 24.5
2017-May-28 12:30S 25°27' E 069°59'1 0.7 1021.7 24.5
2017-May-28 11:40S 25°28' E 069°59'1 0.3 1021.7 24.6
2017-May-28 09:30S 25°28' E 069°59'1 0.2 1022.0 24.6
2017-May-28 05:40S 25°29' E 069°59'0 0.0 1024.1 24.4
2017-May-28 04:30S 25°29' E 069°59'1 0.7 1024.2 24.4
2017-May-28 03:40S 25°28' E 069°59'1 0.5 1023.6 24.4
2017-May-28 02:30S 25°28' E 069°59'0 0.0 1023.0 24.4
2017-May-28 00:30S 25°28' E 069°59'1 0.3 1022.0 24.4
2017-May-27 22:40S 25°28' E 069°59'1 0.5 1022.0 24.4
2017-May-27 21:30S 25°28' E 070°00'2 0.4 1022.3 24.4
2017-May-27 17:30S 25°28' E 070°02'1 0.5 1023.8 24.5
2017-May-27 16:30S 25°28' E 070°01'1 1.1 1023.8 24.5
2017-May-27 15:30S 25°28' E 070°02'1 0.4 1023.7 24.5
2017-May-27 13:30S 25°29' E 070°03'1 0.6 1022.7 24.5
2017-May-27 12:30S 25°29' E 070°03'1 0.6 1022.3 24.5
2017-May-27 11:40S 25°29' E 070°04'0 0.0 1021.9 24.5
2017-May-27 09:30S 25°29' E 070°04'1 0.1 1022.0 24.5
2017-May-27 04:40S 25°30' E 070°04'1 0.7 1024.3 24.4
2017-May-27 03:30S 25°29' E 070°04'0 0.0 1024.1 24.4
2017-May-27 02:40S 25°29' E 070°04'0 0.0 1023.7 24.4
2017-May-27 01:30S 25°29' E 070°04'1 1.1 1023.2 24.4
2017-May-27 00:30S 25°29' E 070°05'1 0.8 1022.7 24.4
2017-May-26 23:30S 25°29' E 070°05'1 0.4 1022.7 24.4
2017-May-26 21:30S 25°29' E 070°05'2 0.6 1023.0 24.4
2017-May-26 17:30S 25°30' E 070°08'1 0.8 1023.5 24.5
2017-May-26 16:30S 25°31' E 070°08'1 1.2 1023.4 24.5
2017-May-26 15:30S 25°29' E 070°08'1 0.6 1023.6 24.4
2017-May-26 14:30S 25°30' E 070°08'1 0.6 1023.1
2017-May-26 13:40S 25°30' E 070°09'1 0.7 1022.5 24.5
2017-May-26 12:30S 25°29' E 070°10'1 0.3 1022.1 24.5
2017-May-26 10:30S 25°30' E 070°10'0 0.0 1021.8 24.5
2017-May-26 09:30S 25°30' E 070°10'2 1.7 1021.8 24.6
2017-May-26 08:30S 25°31' E 070°11'1 0.1 1022.3 24.6
2017-May-26 04:30S 25°31' E 070°12'1 0.6 1024.1 24.4
2017-May-26 03:40S 25°31' E 070°11'1 0.2 1023.7 24.4
2017-May-26 01:30S 25°31' E 070°12'1 0.6 1022.3 24.4
2017-May-26 00:30S 25°30' E 070°12'1 0.7 1022.1 24.5
2017-May-25 23:40S 25°31' E 070°12'1 0.2 1022.1 24.5
2017-May-25 21:30S 25°31' E 070°13'2 0.6 1022.3 24.5
2017-May-25 17:40S 25°32' E 070°14'1 0.5 1023.3 24.5
2017-May-25 16:30S 25°33' E 070°14'0 0.0 1023.0 24.5
2017-May-25 15:30S 25°33' E 070°14'1 0.6 1023.0 24.4
2017-May-25 14:30S 25°34' E 070°14'1 0.8 1022.7 24.4
2017-May-25 13:30S 25°34' E 070°15'3 1.0 1022.0 24.5
2017-May-25 10:30S 25°37' E 070°15'2 0.3 1020.8 24.4
2017-May-25 05:30S 25°37' E 070°17'1 0.5 1023.1 24.4
2017-May-25 04:30S 25°37' E 070°17'1 0.7 1023.2 24.4
2017-May-25 02:40S 25°38' E 070°19'1 0.5 1022.5 24.4
2017-May-25 01:30S 25°38' E 070°19'0 0.0 1022.0 24.4
2017-May-25 00:30S 25°38' E 070°19'2 1.7 1021.8 24.3
2017-May-24 23:30S 25°38' E 070°21'2 0.8 1021.5 24.4
2017-May-24 21:30S 25°40' E 070°22'0 0.0 1021.8 24.3
2017-May-24 20:30S 25°40' E 070°22'1 0.5 1022.2 24.4
2017-May-24 17:40S 25°41' E 070°23'1 0.9 1022.4 24.4
2017-May-24 16:30S 25°41' E 070°22'1 1.1 1022.5 24.4
2017-May-24 15:30S 25°41' E 070°23'1 1.0 1022.6 24.4
2017-May-24 14:40S 25°41' E 070°23'1 0.5 1022.3 24.4
2017-May-24 13:30S 25°42' E 070°23'1 1.3 1021.7 24.4
2017-May-24 12:30S 25°43' E 070°24'1 0.5 1021.3 24.4
2017-May-24 11:30S 25°43' E 070°25'2 0.3 1020.9 24.4
2017-May-24 05:30S 25°43' E 070°26'0 0.0 1023.3 24.4
2017-May-24 04:40S 25°43' E 070°26'1 0.5 1023.6 24.3
2017-May-24 03:30S 25°44' E 070°26'1 0.5 1023.2 24.3
2017-May-24 02:30S 25°44' E 070°27'1 0.5 1022.9 24.3
2017-May-24 01:30S 25°44' E 070°28'1 1.1 1022.4 24.3
2017-May-24 00:30S 25°44' E 070°29'1 0.8 1021.9 24.3
2017-May-23 23:30S 25°44' E 070°29'1 0.4 1021.5 24.3
2017-May-23 21:30S 25°45' E 070°30'2 2.0 1021.8 24.4
2017-May-23 20:30S 25°46' E 070°32'0 0.0 1022.1 24.3
2017-May-23 18:40S 25°46' E 070°32'1 0.6 1022.6 24.4
2017-May-23 16:30S 25°47' E 070°32'1 1.3 1022.8 24.4
2017-May-23 15:30S 25°49' E 070°32'1 0.6 1022.8 24.4
2017-May-23 14:30S 25°48' E 070°32'1 0.6 1022.4 24.4
2017-May-23 13:30S 25°49' E 070°32'1 0.5 1021.9 24.5
2017-May-23 12:30S 25°49' E 070°33'0 0.0 1021.4 24.6
2017-May-23 10:30S 25°49' E 070°33'1 0.2 1020.8 24.8
2017-May-23 05:30S 25°48' E 070°34'1 0.5 1022.7 24.4
2017-May-23 04:30S 25°48' E 070°35'1 0.8 1022.7 24.3
2017-May-23 03:30S 25°47' E 070°34'1 1.2 1022.4 24.3
2017-May-23 02:30S 25°48' E 070°35'0 0.0 1022.2 24.3
2017-May-23 01:30S 25°48' E 070°35'1 0.8 1021.9 24.3
2017-May-23 00:30S 25°47' E 070°36'0 0.0 1021.7 24.3
2017-May-22 23:30S 25°47' E 070°36'1 1.0 1021.4 24.3
2017-May-22 22:40S 25°48' E 070°37'3 0.5 1021.4 24.3
2017-May-22 16:30S 25°49' E 070°40'1 0.8 1022.1 24.4
2017-May-22 15:30S 25°50' E 070°40'0 0.0 1021.7 24.4
2017-May-22 14:30S 25°50' E 070°40'1 0.8 1021.5 24.4
2017-May-22 13:30S 25°50' E 070°40'0 0.0 1020.9 24.6
2017-May-22 12:30S 25°50' E 070°40'0 0.0 1020.4 24.7
2017-May-22 11:30S 25°50' E 070°40'1 0.5 1020.2 24.9
2017-May-22 10:30S 25°50' E 070°40'1 1.0 1019.6 25.0
2017-May-22 09:40S 25°50' E 070°41'0 0.0 1019.6 25.1
2017-May-22 05:40S 25°50' E 070°41'0 0.0 1021.6 24.5
2017-May-22 04:30S 25°50' E 070°41'0 0.0 1021.7 24.4
2017-May-22 03:30S 25°50' E 070°41'1 1.0 1021.3 24.3
2017-May-22 02:40S 25°49' E 070°41'1 0.5 1020.8 24.3
2017-May-22 01:30S 25°50' E 070°41'1 0.8 1020.3 24.3
2017-May-22 00:30S 25°49' E 070°42'0 0.0 1019.9 24.3
2017-May-21 22:30S 25°49' E 070°42'2 0.3 1019.6 24.3
2017-May-21 17:30S 25°49' E 070°44'0 0.0 1020.4 24.4
2017-May-21 16:40S 25°49' E 070°44'1 0.7 1020.4 24.4
2017-May-21 15:30S 25°50' E 070°44'1 0.5 1020.2 24.4
2017-May-21 14:30S 25°50' E 070°45'1 0.8 1020.0 24.5
2017-May-21 13:30S 25°50' E 070°44'0 0.0 1019.6 24.5
2017-May-21 11:30S 25°50' E 070°44'1 0.8 1019.0 24.7
2017-May-21 10:30S 25°50' E 070°45'1 1.2 1019.2 24.8
2017-May-21 09:30S 25°49' E 070°46'1 0.1 1019.0 24.8
2017-May-21 04:30S 25°49' E 070°46'1 1.1 1021.1 24.3
2017-May-21 03:30S 25°49' E 070°47'1 0.5 1021.0 24.3
2017-May-21 02:30S 25°49' E 070°48'0 0.0 1020.7 24.3
2017-May-21 01:40S 25°49' E 070°48'2 1.5 1020.1 24.3
2017-May-21 00:30S 25°48' E 070°50'0 0.0 1019.9 24.3
2017-May-20 22:30S 25°48' E 070°50'2 0.9 1020.3 24.3
2017-May-20 20:30S 25°47' E 070°52'1 0.2 1021.1 24.4
2017-May-20 15:30S 25°47' E 070°53'0 0.0 1022.7 24.4
2017-May-20 14:30S 25°47' E 070°53'2 0.8 1022.6 24.4
2017-May-20 12:30S 25°46' E 070°54'0 0.0 1022.2 24.4
2017-May-20 11:30S 25°46' E 070°54'1 1.2 1022.1 24.4
2017-May-20 10:30S 25°45' E 070°55'3 3.0 1022.2 24.4
2017-May-20 09:30S 25°44' E 070°58'0 0.0 1022.3 24.4
2017-May-20 05:30S 25°44' E 070°58'1 0.8 1025.1 24.4
2017-May-20 04:30S 25°43' E 070°59'1 0.5 1025.4 24.4
2017-May-20 03:30S 25°43' E 070°59'0 0.0 1025.4 24.4
2017-May-20 02:30S 25°43' E 070°59'1 0.6 1025.2 24.4
2017-May-20 01:40S 25°43' E 071°00'1 0.7 1024.9 24.4
2017-May-20 00:30S 25°43' E 071°01'1 1.1 1024.8 24.4
2017-May-19 23:30S 25°43' E 071°02'0 0.0 1024.8 24.4
2017-May-19 22:30S 25°43' E 071°02'2 1.6 1025.2 24.4
2017-May-19 21:30S 25°43' E 071°04'0 0.0 1025.4 24.4
2017-May-19 20:30S 25°43' E 071°04'1 0.3 1025.7 24.4
2017-May-19 17:40S 25°42' E 071°04'1 0.9 1026.5 24.4
2017-May-19 16:30S 25°42' E 071°05'1 0.3 1026.6 24.4
2017-May-19 14:30S 25°42' E 071°06'1 0.5 1026.4 24.4
2017-May-19 13:30S 25°42' E 071°07'1 0.5 1025.9 24.4
2017-May-19 12:30S 25°42' E 071°07'0 0.0 1025.5 24.4
2017-May-19 11:40S 25°42' E 071°07'1 0.6 1025.2 24.4
2017-May-19 09:30S 25°41' E 071°08'2 0.5 1024.7 24.4
2017-May-19 05:30S 25°41' E 071°11'1 0.5 1026.9 24.4
2017-May-19 04:30S 25°41' E 071°11'1 0.5 1027.1 24.4
2017-May-19 03:30S 25°41' E 071°12'0 0.0 1026.9 24.4
2017-May-19 02:40S 25°41' E 071°12'1 1.1 1026.5 24.4
2017-May-19 01:30S 25°42' E 071°13'1 0.8 1026.1 24.3
2017-May-19 00:30S 25°43' E 071°14'1 0.5 1025.6 24.3
2017-May-18 22:30S 25°43' E 071°15'0 0.0 1025.7 24.4
2017-May-18 21:30S 25°43' E 071°15'   1025.6 24.4

Dump ship's entire track history